createdAt,value
2023-05-09T00:00:25.936Z,26.42
2023-05-09T00:01:25.991Z,26.41
2023-05-09T00:02:26.155Z,26.41
2023-05-09T00:03:26.122Z,26.41
2023-05-09T00:04:26.209Z,26.41
2023-05-09T00:05:26.461Z,26.42
2023-05-09T00:06:26.288Z,26.41
2023-05-09T00:07:26.323Z,26.41
2023-05-09T00:08:26.416Z,26.41
2023-05-09T00:09:26.465Z,26.40
2023-05-09T00:10:26.532Z,26.40
2023-05-09T00:11:26.588Z,26.41
2023-05-09T00:12:26.677Z,26.41
2023-05-09T00:13:26.765Z,26.41
2023-05-09T00:14:26.714Z,26.41
2023-05-09T00:15:26.721Z,26.41
2023-05-09T00:16:26.772Z,26.41
2023-05-09T00:17:26.830Z,26.41
2023-05-09T00:18:26.775Z,26.41
2023-05-09T00:19:26.780Z,26.40
2023-05-09T00:20:26.818Z,26.41
2023-05-09T00:21:26.884Z,26.41
2023-05-09T00:22:26.827Z,26.40
2023-05-09T00:23:26.829Z,26.41
2023-05-09T00:24:26.856Z,26.41
2023-05-09T00:25:26.848Z,26.41
2023-05-09T00:26:26.904Z,26.41
2023-05-09T00:27:26.906Z,26.40
2023-05-09T00:28:26.907Z,26.41
2023-05-09T00:29:26.923Z,26.41
2023-05-09T00:30:26.977Z,26.41
2023-05-09T00:31:27.000Z,26.40
2023-05-09T00:32:26.998Z,26.40
2023-05-09T00:33:27.052Z,26.41
2023-05-09T00:34:27.033Z,26.40
2023-05-09T00:35:27.052Z,26.40
2023-05-09T00:36:27.094Z,26.40
2023-05-09T00:37:27.169Z,26.40
2023-05-09T00:38:27.082Z,26.40
2023-05-09T00:39:27.093Z,26.40
2023-05-09T00:40:27.145Z,26.40
2023-05-09T00:41:27.117Z,26.41
2023-05-09T00:42:27.150Z,26.41
2023-05-09T00:43:27.144Z,26.41
2023-05-09T00:44:27.165Z,26.41
2023-05-09T00:45:27.247Z,26.41
2023-05-09T00:46:27.288Z,26.41
2023-05-09T00:47:27.356Z,26.40
2023-05-09T00:48:27.431Z,26.40
2023-05-09T00:49:27.444Z,26.41
2023-05-09T00:50:27.428Z,26.41
2023-05-09T00:51:27.469Z,26.41
2023-05-09T00:52:27.471Z,26.40
2023-05-09T00:53:27.594Z,26.40
2023-05-09T00:54:27.508Z,26.41
2023-05-09T00:55:27.489Z,26.40
2023-05-09T00:56:27.520Z,26.40
2023-05-09T00:57:27.547Z,26.41
2023-05-09T00:58:27.581Z,26.41
2023-05-09T00:59:27.555Z,26.40
2023-05-09T01:00:27.573Z,26.40
2023-05-09T01:01:27.620Z,26.41
2023-05-09T01:02:27.668Z,26.41
2023-05-09T01:03:27.693Z,26.41
2023-05-09T01:04:27.610Z,26.41
2023-05-09T01:05:27.662Z,26.41
2023-05-09T01:06:27.634Z,26.41
2023-05-09T01:07:27.656Z,26.41
2023-05-09T01:08:27.661Z,26.41
2023-05-09T01:09:27.777Z,26.40
2023-05-09T01:10:27.705Z,26.41
2023-05-09T01:11:27.732Z,26.41
2023-05-09T01:12:27.706Z,26.40
2023-05-09T01:13:27.794Z,26.41
2023-05-09T01:14:27.760Z,26.41
2023-05-09T01:15:27.799Z,26.41
2023-05-09T01:16:27.986Z,26.40
2023-05-09T01:17:27.965Z,26.41
2023-05-09T01:18:27.987Z,26.41
2023-05-09T01:19:28.013Z,26.42
2023-05-09T01:20:28.062Z,26.42
2023-05-09T01:21:28.149Z,26.42
2023-05-09T01:22:28.202Z,26.41
2023-05-09T01:23:28.190Z,26.41
2023-05-09T01:24:28.202Z,26.42
2023-05-09T01:25:28.340Z,26.41
2023-05-09T01:26:28.240Z,26.41
2023-05-09T01:27:28.231Z,26.41
2023-05-09T01:28:28.252Z,26.41
2023-05-09T01:29:28.275Z,26.42
2023-05-09T01:30:28.255Z,26.41
2023-05-09T01:31:28.309Z,26.41
2023-05-09T01:32:28.349Z,26.40
2023-05-09T01:33:28.315Z,26.41
2023-05-09T01:34:28.337Z,26.41
2023-05-09T01:35:28.350Z,26.41
2023-05-09T01:36:28.364Z,26.42
2023-05-09T01:37:28.337Z,26.41
2023-05-09T01:38:28.367Z,26.41
2023-05-09T01:39:28.403Z,26.41
2023-05-09T01:40:28.457Z,26.42
2023-05-09T01:41:28.592Z,26.41
2023-05-09T01:42:28.535Z,26.41
2023-05-09T01:43:28.590Z,26.42
2023-05-09T01:44:28.557Z,26.41
2023-05-09T01:45:28.567Z,26.41
2023-05-09T01:46:28.747Z,26.41
2023-05-09T01:47:28.646Z,26.41
2023-05-09T01:48:28.650Z,26.41
2023-05-09T01:49:28.651Z,26.41
2023-05-09T01:50:28.686Z,26.41
2023-05-09T01:51:28.666Z,26.41
2023-05-09T01:52:28.717Z,26.41
2023-05-09T01:53:28.747Z,26.41
2023-05-09T01:54:28.741Z,26.40
2023-05-09T01:55:28.776Z,26.40
2023-05-09T01:56:28.800Z,26.41
2023-05-09T01:57:28.914Z,26.41
2023-05-09T01:58:28.890Z,26.40
2023-05-09T01:59:28.846Z,26.40
2023-05-09T02:00:28.928Z,26.41
2023-05-09T02:01:28.887Z,26.41
2023-05-09T02:02:29.044Z,26.41
2023-05-09T02:03:28.994Z,26.41
2023-05-09T02:04:28.965Z,26.41
2023-05-09T02:05:28.960Z,26.41
2023-05-09T02:06:28.989Z,26.41
2023-05-09T02:07:28.998Z,26.41
2023-05-09T02:08:29.041Z,26.41
2023-05-09T02:09:29.064Z,26.41
2023-05-09T02:10:29.081Z,26.41
2023-05-09T02:11:29.104Z,26.41
2023-05-09T02:12:29.101Z,26.41
2023-05-09T02:13:29.243Z,26.40
2023-05-09T02:14:29.149Z,26.40
2023-05-09T02:15:29.168Z,26.41
2023-05-09T02:16:29.235Z,26.41
2023-05-09T02:17:29.218Z,26.41
2023-05-09T02:18:29.211Z,26.40
2023-05-09T02:19:29.249Z,26.40
2023-05-09T02:20:29.276Z,26.40
2023-05-09T02:21:29.376Z,26.40
2023-05-09T02:22:29.336Z,26.40
2023-05-09T02:23:29.347Z,26.40
2023-05-09T02:24:29.349Z,26.40
2023-05-09T02:25:29.380Z,26.41
2023-05-09T02:26:29.398Z,26.41
2023-05-09T02:27:29.497Z,26.41
2023-05-09T02:28:29.579Z,26.41
2023-05-09T02:29:29.550Z,26.41
2023-05-09T02:30:29.504Z,26.41
2023-05-09T02:31:29.603Z,26.40
2023-05-09T02:32:29.561Z,26.41
2023-05-09T02:33:29.554Z,26.41
2023-05-09T02:34:29.587Z,26.40
2023-05-09T02:35:29.570Z,26.41
2023-05-09T02:36:29.584Z,26.41
2023-05-09T02:37:29.575Z,26.40
2023-05-09T02:38:29.625Z,26.40
2023-05-09T02:39:29.633Z,26.40
2023-05-09T02:40:29.650Z,26.40
2023-05-09T02:41:29.654Z,26.40
2023-05-09T02:42:29.676Z,26.40
2023-05-09T02:43:29.677Z,26.41
2023-05-09T02:44:29.713Z,26.40
2023-05-09T02:45:29.829Z,26.40
2023-05-09T02:46:29.838Z,26.40
2023-05-09T02:47:29.867Z,26.41
2023-05-09T02:48:29.926Z,26.41
2023-05-09T02:49:32.398Z,26.40
2023-05-09T02:50:29.996Z,26.40
2023-05-09T02:51:29.950Z,26.40
2023-05-09T02:52:30.628Z,26.40
2023-05-09T02:53:29.953Z,26.41
2023-05-09T02:54:29.992Z,26.41
2023-05-09T02:55:29.962Z,26.40
2023-05-09T02:56:29.956Z,26.41
2023-05-09T02:57:29.947Z,26.40
2023-05-09T02:58:29.917Z,26.40
2023-05-09T02:59:29.910Z,26.40
2023-05-09T03:00:29.912Z,26.40
2023-05-09T03:01:30.038Z,26.40
2023-05-09T03:02:29.911Z,26.40
2023-05-09T03:03:29.935Z,26.39
2023-05-09T03:04:29.911Z,26.40
2023-05-09T03:05:29.901Z,26.39
2023-05-09T03:06:29.884Z,26.40
2023-05-09T03:07:29.897Z,26.40
2023-05-09T03:08:29.861Z,26.40
2023-05-09T03:09:29.846Z,26.40
2023-05-09T03:10:29.865Z,26.40
2023-05-09T03:11:29.822Z,26.40
2023-05-09T03:12:29.837Z,26.40
2023-05-09T03:13:29.821Z,26.40
2023-05-09T03:14:29.804Z,26.40
2023-05-09T03:15:29.824Z,26.40
2023-05-09T03:16:30.052Z,26.40
2023-05-09T03:17:29.940Z,26.40
2023-05-09T03:18:29.794Z,26.40
2023-05-09T03:19:29.785Z,26.40
2023-05-09T03:20:29.787Z,26.40
2023-05-09T03:21:29.752Z,26.41
2023-05-09T03:22:29.759Z,26.40
2023-05-09T03:23:29.755Z,26.40
2023-05-09T03:24:29.824Z,26.40
2023-05-09T03:25:29.875Z,26.40
2023-05-09T03:26:29.940Z,26.40
2023-05-09T03:27:30.033Z,26.40
2023-05-09T03:28:30.080Z,26.40
2023-05-09T03:29:30.104Z,26.41
2023-05-09T03:30:30.227Z,26.40
2023-05-09T03:31:30.293Z,26.40
2023-05-09T03:32:30.356Z,26.40
2023-05-09T03:33:30.482Z,26.41
2023-05-09T03:34:30.463Z,26.40
2023-05-09T03:35:30.505Z,26.40
2023-05-09T03:36:30.571Z,26.40
2023-05-09T03:37:30.641Z,26.40
2023-05-09T03:38:30.675Z,26.40
2023-05-09T03:39:30.644Z,26.40
2023-05-09T03:40:30.671Z,26.40
2023-05-09T03:41:30.680Z,26.40
2023-05-09T03:42:30.708Z,26.40
2023-05-09T03:43:30.765Z,26.40
2023-05-09T03:44:30.827Z,26.40
2023-05-09T03:45:30.903Z,26.39
2023-05-09T03:46:31.024Z,26.40
2023-05-09T03:47:31.029Z,26.40
2023-05-09T03:48:31.100Z,26.39
2023-05-09T03:49:31.260Z,26.39
2023-05-09T03:50:31.270Z,26.40
2023-05-09T03:51:31.268Z,26.40
2023-05-09T03:52:31.340Z,26.39
2023-05-09T03:53:31.403Z,26.40
2023-05-09T03:54:31.484Z,26.40
2023-05-09T03:55:31.551Z,26.40
2023-05-09T03:56:31.580Z,26.40
2023-05-09T03:57:31.643Z,26.40
2023-05-09T03:58:31.664Z,26.40
2023-05-09T03:59:31.731Z,26.39
2023-05-09T04:00:31.822Z,26.40
2023-05-09T04:01:31.851Z,26.40
2023-05-09T04:02:32.026Z,26.40
2023-05-09T04:03:32.009Z,26.40
2023-05-09T04:04:31.995Z,26.40
2023-05-09T04:05:32.160Z,26.41
2023-05-09T04:06:32.104Z,26.41
2023-05-09T04:07:32.185Z,26.40
2023-05-09T04:08:32.212Z,26.40
2023-05-09T04:09:32.291Z,26.40
2023-05-09T04:10:32.376Z,26.40
2023-05-09T04:11:32.402Z,26.40
2023-05-09T04:12:32.432Z,26.40
2023-05-09T04:13:32.505Z,26.40
2023-05-09T04:14:32.584Z,26.40
2023-05-09T04:15:32.643Z,26.39
2023-05-09T04:16:32.666Z,26.40
2023-05-09T04:17:32.700Z,26.40
2023-05-09T04:18:32.694Z,26.39
2023-05-09T04:19:32.703Z,26.40
2023-05-09T04:20:32.771Z,26.40
2023-05-09T04:21:32.921Z,26.40
2023-05-09T04:22:32.833Z,26.39
2023-05-09T04:23:32.872Z,26.40
2023-05-09T04:24:32.890Z,26.40
2023-05-09T04:25:32.915Z,26.39
2023-05-09T04:26:33.183Z,26.39
2023-05-09T04:27:32.948Z,26.39
2023-05-09T04:28:32.991Z,26.40
2023-05-09T04:29:33.029Z,26.39
2023-05-09T04:30:33.149Z,26.39
2023-05-09T04:31:33.245Z,26.40
2023-05-09T04:32:33.181Z,26.39
2023-05-09T04:33:33.186Z,26.40
2023-05-09T04:34:33.213Z,26.40
2023-05-09T04:35:33.230Z,26.40
2023-05-09T04:36:33.283Z,26.39
2023-05-09T04:37:33.352Z,26.39
2023-05-09T04:38:33.290Z,26.40
2023-05-09T04:39:33.296Z,26.40
2023-05-09T04:40:33.343Z,26.40
2023-05-09T04:41:33.332Z,26.39
2023-05-09T04:42:33.389Z,26.39
2023-05-09T04:43:33.389Z,26.39
2023-05-09T04:44:33.414Z,26.40
2023-05-09T04:45:33.477Z,26.39
2023-05-09T04:46:33.510Z,26.39
2023-05-09T04:47:33.606Z,26.39
2023-05-09T04:48:33.546Z,26.39
2023-05-09T04:49:33.570Z,26.39
2023-05-09T04:50:33.590Z,26.39
2023-05-09T04:51:33.624Z,26.39
2023-05-09T04:52:33.636Z,26.40
2023-05-09T04:53:33.764Z,26.40
2023-05-09T04:54:33.704Z,26.40
2023-05-09T04:55:33.723Z,26.40
2023-05-09T04:56:33.786Z,26.40
2023-05-09T04:57:33.769Z,26.40
2023-05-09T04:58:33.804Z,26.40
2023-05-09T04:59:33.842Z,26.40
2023-05-09T05:00:40.851Z,26.39
2023-05-09T05:01:33.865Z,26.38
2023-05-09T05:02:33.873Z,26.38
2023-05-09T05:03:33.863Z,26.39
2023-05-09T05:04:33.856Z,26.39
2023-05-09T05:05:36.969Z,26.40
2023-05-09T05:06:33.793Z,26.38
2023-05-09T05:07:33.807Z,26.39
2023-05-09T05:08:33.814Z,26.39
2023-05-09T05:09:33.885Z,26.39
2023-05-09T05:10:33.787Z,26.39
2023-05-09T05:11:33.795Z,26.39
2023-05-09T05:12:33.778Z,26.39
2023-05-09T05:13:33.750Z,26.39
2023-05-09T05:14:33.729Z,26.39
2023-05-09T05:15:33.754Z,26.39
2023-05-09T05:16:33.808Z,26.38
2023-05-09T05:17:33.753Z,26.39
2023-05-09T05:18:33.725Z,26.39
2023-05-09T05:19:33.710Z,26.39
2023-05-09T05:20:33.675Z,26.39
2023-05-09T05:21:33.698Z,26.39
2023-05-09T05:22:33.679Z,26.39
2023-05-09T05:23:33.683Z,26.40
2023-05-09T05:24:33.701Z,26.39
2023-05-09T05:25:33.776Z,26.39
2023-05-09T05:26:33.687Z,26.39
2023-05-09T05:27:33.655Z,26.39
2023-05-09T05:28:33.663Z,26.39
2023-05-09T05:29:33.640Z,26.39
2023-05-09T05:30:34.628Z,26.40
2023-05-09T05:31:33.760Z,26.39
2023-05-09T05:32:33.656Z,26.39
2023-05-09T05:33:33.597Z,26.39
2023-05-09T05:34:33.633Z,26.38
2023-05-09T05:35:33.623Z,26.37
2023-05-09T05:36:33.723Z,26.36
2023-05-09T05:37:33.598Z,26.34
2023-05-09T05:38:33.596Z,26.34
2023-05-09T05:39:33.561Z,26.33
2023-05-09T05:40:33.578Z,26.33
2023-05-09T05:41:33.824Z,26.33
2023-05-09T05:42:33.551Z,26.34
2023-05-09T05:43:33.528Z,26.34
2023-05-09T05:44:33.566Z,26.35
2023-05-09T05:45:40.563Z,26.35
2023-05-09T05:46:33.553Z,26.35
2023-05-09T05:47:33.562Z,26.36
2023-05-09T05:48:33.525Z,26.37
2023-05-09T05:49:33.531Z,26.39
2023-05-09T05:50:33.501Z,26.40
2023-05-09T05:51:33.497Z,26.41
2023-05-09T05:52:33.486Z,26.42
2023-05-09T05:53:33.511Z,26.42
2023-05-09T05:54:33.496Z,26.41
2023-05-09T05:55:33.445Z,26.41
2023-05-09T05:56:33.476Z,26.39
2023-05-09T05:57:33.540Z,26.40
2023-05-09T05:58:33.446Z,26.39
2023-05-09T05:59:33.440Z,26.39
2023-05-09T06:00:33.423Z,26.39
2023-05-09T06:01:33.436Z,26.38
2023-05-09T06:02:33.640Z,26.37
2023-05-09T06:03:33.472Z,26.37
2023-05-09T06:04:33.404Z,26.37
2023-05-09T06:05:33.396Z,26.35
2023-05-09T06:06:33.410Z,26.36
2023-05-09T06:07:33.748Z,26.37
2023-05-09T06:08:33.373Z,26.38
2023-05-09T06:09:33.425Z,26.39
2023-05-09T06:10:34.251Z,26.39
2023-05-09T06:11:33.509Z,26.40
2023-05-09T06:12:33.577Z,26.40
2023-05-09T06:13:33.736Z,26.40
2023-05-09T06:14:33.681Z,26.39
2023-05-09T06:15:33.774Z,26.41
2023-05-09T06:16:33.825Z,26.42
2023-05-09T06:17:33.986Z,26.43
2023-05-09T06:18:33.957Z,26.43
2023-05-09T06:19:34.013Z,26.45
2023-05-09T06:20:34.072Z,26.45
2023-05-09T06:21:34.124Z,26.45
2023-05-09T06:22:34.182Z,26.45
2023-05-09T06:23:34.215Z,26.45
2023-05-09T06:24:36.115Z,26.44
2023-05-09T06:25:34.374Z,26.44
2023-05-09T06:26:34.450Z,26.44
2023-05-09T06:27:34.741Z,26.42
2023-05-09T06:28:34.573Z,26.41
2023-05-09T06:29:34.702Z,26.42
2023-05-09T06:30:34.660Z,26.44
2023-05-09T06:31:34.793Z,26.44
2023-05-09T06:32:34.844Z,26.45
2023-05-09T06:33:34.878Z,26.45
2023-05-09T06:34:34.921Z,26.45
2023-05-09T06:35:34.993Z,26.42
2023-05-09T06:36:35.068Z,26.41
2023-05-09T06:37:35.081Z,26.40
2023-05-09T06:38:35.166Z,26.38
2023-05-09T06:39:35.238Z,26.36
2023-05-09T06:40:35.243Z,26.34
2023-05-09T06:41:35.255Z,26.36
2023-05-09T06:42:35.297Z,26.36
2023-05-09T06:43:35.386Z,26.37
2023-05-09T06:44:35.374Z,26.38
2023-05-09T06:45:35.509Z,26.38
2023-05-09T06:46:35.446Z,26.39
2023-05-09T06:47:35.872Z,26.40
2023-05-09T06:48:35.416Z,26.41
2023-05-09T06:49:36.276Z,26.44
2023-05-09T06:50:35.471Z,26.45
2023-05-09T06:51:35.523Z,26.46
2023-05-09T06:52:35.550Z,26.48
2023-05-09T06:53:35.563Z,26.49
2023-05-09T06:54:35.553Z,26.51
2023-05-09T06:55:35.598Z,26.52
2023-05-09T06:56:35.609Z,26.53
2023-05-09T06:57:35.602Z,26.53
2023-05-09T06:58:35.794Z,26.53
2023-05-09T06:59:35.618Z,26.53
2023-05-09T07:00:35.607Z,26.54
2023-05-09T07:01:35.748Z,26.54
2023-05-09T07:02:35.664Z,26.56
2023-05-09T07:03:35.648Z,26.56
2023-05-09T07:04:35.667Z,26.57
2023-05-09T07:05:35.774Z,26.59
2023-05-09T07:06:35.739Z,26.61
2023-05-09T07:07:35.764Z,26.61
2023-05-09T07:08:35.863Z,26.62
2023-05-09T07:09:35.875Z,26.63
2023-05-09T07:10:35.920Z,26.63
2023-05-09T07:11:36.028Z,26.63
2023-05-09T07:12:36.035Z,26.64
2023-05-09T07:13:37.309Z,26.66
2023-05-09T07:14:36.118Z,26.67
2023-05-09T07:15:42.002Z,26.68
2023-05-09T07:16:37.854Z,26.69
2023-05-09T07:17:36.319Z,26.72
2023-05-09T07:18:36.145Z,26.74
2023-05-09T07:19:36.283Z,26.75
2023-05-09T07:20:36.145Z,26.78
2023-05-09T07:21:36.140Z,26.79
2023-05-09T07:22:37.455Z,26.80
2023-05-09T07:23:36.161Z,26.80
2023-05-09T07:24:36.126Z,26.78
2023-05-09T07:25:36.143Z,26.79
2023-05-09T07:26:36.108Z,26.79
2023-05-09T07:27:36.200Z,26.79
2023-05-09T07:28:36.305Z,26.80
2023-05-09T07:29:36.172Z,26.77
2023-05-09T07:30:36.157Z,26.77
2023-05-09T07:31:37.427Z,26.76
2023-05-09T07:32:36.252Z,26.73
2023-05-09T07:33:36.375Z,26.70
2023-05-09T07:34:36.278Z,26.64
2023-05-09T07:35:36.299Z,26.56
2023-05-09T07:37:36.378Z,26.45
2023-05-09T07:38:36.819Z,26.40
2023-05-09T07:39:36.405Z,26.36
2023-05-09T07:40:36.462Z,26.32
2023-05-09T07:41:36.401Z,26.31
2023-05-09T07:42:36.408Z,26.30
2023-05-09T07:43:36.772Z,26.27
2023-05-09T07:44:36.473Z,26.25
2023-05-09T07:45:36.570Z,26.22
2023-05-09T07:46:36.437Z,26.21
2023-05-09T07:47:36.481Z,26.20
2023-05-09T07:48:36.459Z,26.18
2023-05-09T07:49:36.534Z,26.17
2023-05-09T07:50:36.466Z,26.12
2023-05-09T07:51:36.458Z,26.07
2023-05-09T07:52:36.457Z,26.02
2023-05-09T07:53:36.473Z,25.98
2023-05-09T07:54:36.490Z,25.91
2023-05-09T07:55:36.580Z,25.87
2023-05-09T07:56:36.594Z,25.86
2023-05-09T07:57:36.680Z,25.86
2023-05-09T07:58:36.748Z,25.85
2023-05-09T07:59:36.815Z,25.85
2023-05-09T08:00:36.825Z,25.84
2023-05-09T08:01:36.861Z,25.84
2023-05-09T08:02:37.059Z,25.83
2023-05-09T08:03:37.098Z,25.84
2023-05-09T08:04:37.176Z,25.84
2023-05-09T08:05:37.234Z,25.85
2023-05-09T08:06:37.205Z,25.86
2023-05-09T08:07:37.280Z,25.86
2023-05-09T08:08:38.898Z,25.86
2023-05-09T08:09:37.356Z,25.86
2023-05-09T08:10:37.466Z,25.87
2023-05-09T08:11:37.513Z,25.88
2023-05-09T08:12:37.561Z,25.90
2023-05-09T08:13:37.779Z,25.92
2023-05-09T08:14:37.667Z,25.94
2023-05-09T08:15:37.814Z,25.96
2023-05-09T08:16:37.816Z,25.97
2023-05-09T08:17:37.872Z,26.01
2023-05-09T08:18:38.329Z,26.03
2023-05-09T08:19:37.909Z,26.05
2023-05-09T08:20:37.929Z,26.09
2023-05-09T08:21:38.036Z,26.15
2023-05-09T08:22:37.939Z,26.19
2023-05-09T08:23:37.977Z,26.24
2023-05-09T08:24:38.316Z,26.29
2023-05-09T08:25:38.071Z,26.34
2023-05-09T08:26:38.181Z,26.42
2023-05-09T08:27:38.238Z,26.48
2023-05-09T08:28:38.238Z,26.53
2023-05-09T08:29:38.352Z,26.58
2023-05-09T08:30:38.315Z,26.63
2023-05-09T08:31:38.366Z,26.67
2023-05-09T08:32:38.380Z,26.66
2023-05-09T08:33:40.504Z,26.68
2023-05-09T08:34:38.830Z,26.70
2023-05-09T08:35:38.336Z,26.70
2023-05-09T08:36:38.362Z,26.73
2023-05-09T08:37:38.723Z,26.73
2023-05-09T08:38:38.335Z,26.75
2023-05-09T08:39:38.332Z,26.76
2023-05-09T08:40:38.328Z,26.79
2023-05-09T08:41:38.295Z,26.80
2023-05-09T08:42:38.319Z,26.82
2023-05-09T08:43:38.312Z,26.82
2023-05-09T08:44:38.297Z,26.82
2023-05-09T08:45:38.303Z,26.83
2023-05-09T08:46:38.297Z,26.83
2023-05-09T08:47:38.318Z,26.84
2023-05-09T08:48:38.286Z,26.84
2023-05-09T08:49:38.307Z,26.85
2023-05-09T08:50:38.367Z,26.84
2023-05-09T08:51:38.329Z,26.80
2023-05-09T08:52:38.251Z,26.77
2023-05-09T08:53:38.320Z,26.74
2023-05-09T08:54:38.219Z,26.74
2023-05-09T08:55:38.198Z,26.74
2023-05-09T08:56:38.232Z,26.74
2023-05-09T08:57:38.209Z,26.75
2023-05-09T08:58:38.213Z,26.75
2023-05-09T08:59:38.359Z,26.78
2023-05-09T09:00:38.151Z,26.77
2023-05-09T09:01:38.184Z,26.78
2023-05-09T09:02:38.180Z,26.79
2023-05-09T09:03:38.147Z,26.79
2023-05-09T09:04:38.221Z,26.81
2023-05-09T09:05:41.307Z,26.82
2023-05-09T09:06:38.150Z,26.82
2023-05-09T09:07:38.135Z,26.85
2023-05-09T09:08:38.141Z,26.88
2023-05-09T09:09:38.229Z,26.91
2023-05-09T09:10:38.127Z,26.93
2023-05-09T09:11:38.099Z,26.94
2023-05-09T09:12:38.075Z,26.95
2023-05-09T09:13:38.141Z,26.95
2023-05-09T09:14:38.084Z,26.98
2023-05-09T09:15:38.072Z,26.98
2023-05-09T09:16:38.106Z,26.99
2023-05-09T09:17:38.092Z,26.99
2023-05-09T09:18:39.597Z,27.01
2023-05-09T09:19:38.332Z,27.02
2023-05-09T09:20:38.105Z,27.02
2023-05-09T09:21:38.121Z,27.03
2023-05-09T09:22:38.047Z,27.05
2023-05-09T09:23:38.061Z,27.08
2023-05-09T09:24:38.060Z,27.11
2023-05-09T09:25:38.808Z,27.12
2023-05-09T09:26:38.045Z,27.13
2023-05-09T09:27:38.155Z,27.12
2023-05-09T09:28:37.998Z,27.10
2023-05-09T09:29:38.396Z,27.08
2023-05-09T09:30:38.026Z,27.07
2023-05-09T09:31:38.034Z,27.06
2023-05-09T09:32:37.978Z,27.04
2023-05-09T09:33:37.974Z,27.05
2023-05-09T09:34:37.977Z,27.05
2023-05-09T09:35:38.341Z,27.07
2023-05-09T09:36:38.003Z,27.10
2023-05-09T09:37:37.978Z,27.12
2023-05-09T09:38:38.015Z,27.15
2023-05-09T09:39:38.021Z,27.18
2023-05-09T09:40:38.000Z,27.20
2023-05-09T09:41:38.141Z,27.20
2023-05-09T09:42:38.045Z,27.18
2023-05-09T09:43:38.054Z,27.14
2023-05-09T09:44:38.088Z,27.06
2023-05-09T09:45:38.162Z,27.01
2023-05-09T09:46:38.188Z,26.97
2023-05-09T09:47:38.187Z,26.96
2023-05-09T09:48:38.197Z,26.93
2023-05-09T09:49:38.231Z,26.91
2023-05-09T09:50:38.350Z,26.90
2023-05-09T09:51:38.272Z,26.89
2023-05-09T09:52:38.282Z,26.88
2023-05-09T09:53:38.354Z,26.87
2023-05-09T09:54:38.389Z,26.86
2023-05-09T09:55:38.402Z,26.85
2023-05-09T09:56:38.409Z,26.85
2023-05-09T09:57:38.579Z,26.84
2023-05-09T09:58:38.525Z,26.84
2023-05-09T09:59:38.595Z,26.84
2023-05-09T10:00:38.876Z,26.84
2023-05-09T10:01:38.635Z,26.86
2023-05-09T10:02:38.691Z,26.86
2023-05-09T10:03:38.713Z,26.88
2023-05-09T10:04:38.682Z,26.87
2023-05-09T10:05:38.865Z,26.86
2023-05-09T10:06:38.785Z,26.84
2023-05-09T10:07:38.763Z,26.81
2023-05-09T10:08:38.776Z,26.80
2023-05-09T10:09:38.803Z,26.79
2023-05-09T10:10:38.783Z,26.79
2023-05-09T10:11:38.755Z,26.78
2023-05-09T10:12:38.765Z,26.77
2023-05-09T10:13:38.837Z,26.77
2023-05-09T10:14:38.784Z,26.77
2023-05-09T10:15:52.325Z,26.77
2023-05-09T10:16:43.835Z,26.78
2023-05-09T10:17:38.954Z,26.78
2023-05-09T10:18:38.913Z,26.79
2023-05-09T10:19:38.806Z,26.80
2023-05-09T10:20:38.872Z,26.81
2023-05-09T10:21:38.772Z,26.82
2023-05-09T10:22:38.778Z,26.82
2023-05-09T10:23:38.733Z,26.81
2023-05-09T10:24:38.799Z,26.80
2023-05-09T10:25:38.763Z,26.79
2023-05-09T10:26:38.760Z,26.79
2023-05-09T10:27:38.735Z,26.79
2023-05-09T10:28:38.708Z,26.78
2023-05-09T10:29:38.852Z,26.78
2023-05-09T10:30:38.755Z,26.79
2023-05-09T10:31:38.779Z,26.80
2023-05-09T10:32:38.720Z,26.82
2023-05-09T10:33:38.662Z,26.83
2023-05-09T10:34:38.671Z,26.83
2023-05-09T10:35:38.709Z,26.83
2023-05-09T10:36:38.676Z,26.82
2023-05-09T10:37:38.649Z,26.80
2023-05-09T10:38:38.686Z,26.74
2023-05-09T10:39:38.631Z,26.69
2023-05-09T10:40:38.894Z,26.69
2023-05-09T10:41:38.654Z,26.70
2023-05-09T10:42:38.626Z,26.74
2023-05-09T10:43:38.631Z,26.74
2023-05-09T10:44:38.643Z,26.74
2023-05-09T10:45:38.710Z,26.75
2023-05-09T10:46:38.710Z,26.69
2023-05-09T10:47:38.684Z,26.67
2023-05-09T10:48:38.721Z,26.60
2023-05-09T10:49:38.587Z,26.49
2023-05-09T10:50:38.606Z,26.46
2023-05-09T10:51:38.577Z,26.49
2023-05-09T10:52:38.588Z,26.51
2023-05-09T10:53:38.584Z,26.54
2023-05-09T10:54:38.643Z,26.60
2023-05-09T10:55:38.596Z,26.62
2023-05-09T10:56:38.515Z,26.63
2023-05-09T10:57:38.599Z,26.65
2023-05-09T10:58:38.575Z,26.65
2023-05-09T10:59:38.507Z,26.58
2023-05-09T11:00:38.888Z,26.53
2023-05-09T11:01:38.673Z,26.50
2023-05-09T11:02:38.511Z,26.49
2023-05-09T11:03:38.575Z,26.54
2023-05-09T11:04:38.505Z,26.56
2023-05-09T11:05:38.894Z,26.60
2023-05-09T11:06:38.493Z,26.63
2023-05-09T11:07:38.540Z,26.64
2023-05-09T11:08:38.455Z,26.68
2023-05-09T11:09:38.602Z,26.73
2023-05-09T11:10:38.450Z,26.76
2023-05-09T11:11:38.454Z,26.69
2023-05-09T11:12:38.457Z,26.60
2023-05-09T11:13:38.425Z,26.56
2023-05-09T11:14:38.415Z,26.52
2023-05-09T11:15:38.408Z,26.40
2023-05-09T11:16:38.932Z,26.35
2023-05-09T11:17:38.527Z,26.36
2023-05-09T11:18:38.447Z,26.33
2023-05-09T11:19:39.382Z,26.33
2023-05-09T11:20:38.388Z,26.29
2023-05-09T11:21:38.412Z,26.26
2023-05-09T11:22:38.413Z,26.29
2023-05-09T11:23:38.364Z,26.33
2023-05-09T11:24:38.328Z,26.34
2023-05-09T11:25:38.330Z,26.37
2023-05-09T11:26:38.355Z,26.39
2023-05-09T11:27:38.372Z,26.43
2023-05-09T11:28:38.361Z,26.48
2023-05-09T11:29:38.393Z,26.52
2023-05-09T11:30:38.413Z,26.56
2023-05-09T11:31:39.059Z,26.61
2023-05-09T11:32:38.445Z,26.65
2023-05-09T11:33:38.501Z,26.70
2023-05-09T11:34:38.506Z,26.73
2023-05-09T11:35:38.395Z,26.76
2023-05-09T11:36:38.952Z,26.79
2023-05-09T11:37:38.393Z,26.82
2023-05-09T11:38:38.460Z,26.84
2023-05-09T11:39:38.447Z,26.87
2023-05-09T11:40:38.440Z,26.89
2023-05-09T11:41:38.501Z,26.91
2023-05-09T11:42:38.481Z,26.94
2023-05-09T11:43:38.552Z,26.95
2023-05-09T11:44:38.596Z,26.96
2023-05-09T11:45:38.652Z,26.98
2023-05-09T11:46:38.668Z,27.00
2023-05-09T11:47:38.781Z,27.01
2023-05-09T11:48:38.781Z,27.02
2023-05-09T11:49:38.949Z,27.03
2023-05-09T11:50:38.856Z,27.04
2023-05-09T11:51:38.935Z,27.04
2023-05-09T11:52:38.922Z,27.06
2023-05-09T11:53:38.966Z,27.07
2023-05-09T11:54:39.025Z,27.07
2023-05-09T11:55:39.117Z,27.09
2023-05-09T11:56:39.155Z,27.08
2023-05-09T11:57:39.242Z,27.09
2023-05-09T11:58:39.285Z,27.10
2023-05-09T11:59:39.328Z,27.10
2023-05-09T12:00:39.407Z,27.11
2023-05-09T12:01:39.461Z,27.11
2023-05-09T12:02:39.633Z,27.12
2023-05-09T12:03:39.633Z,27.13
2023-05-09T12:04:39.653Z,27.12
2023-05-09T12:05:39.679Z,27.13
2023-05-09T12:06:39.605Z,27.13
2023-05-09T12:07:39.603Z,27.13
2023-05-09T12:08:39.682Z,27.15
2023-05-09T12:09:39.646Z,27.17
2023-05-09T12:10:39.659Z,27.19
2023-05-09T12:11:39.667Z,27.19
2023-05-09T12:12:39.664Z,27.19
2023-05-09T12:13:39.675Z,27.20
2023-05-09T12:14:39.700Z,27.21
2023-05-09T12:15:39.784Z,27.22
2023-05-09T12:16:39.810Z,27.23
2023-05-09T12:17:39.752Z,27.23
2023-05-09T12:18:39.735Z,27.24
2023-05-09T12:19:39.734Z,27.24
2023-05-09T12:20:39.739Z,27.24
2023-05-09T12:21:39.754Z,27.25
2023-05-09T12:22:39.789Z,27.25
2023-05-09T12:23:39.811Z,27.26
2023-05-09T12:24:39.881Z,27.26
2023-05-09T12:25:39.930Z,27.26
2023-05-09T12:26:40.026Z,27.25
2023-05-09T12:27:40.022Z,27.25
2023-05-09T12:28:40.112Z,27.25
2023-05-09T12:29:40.165Z,27.26
2023-05-09T12:30:40.196Z,27.25
2023-05-09T12:31:40.311Z,27.25
2023-05-09T12:32:40.602Z,27.25
2023-05-09T12:34:13.819Z,27.22
2023-05-09T12:35:13.995Z,27.23
2023-05-09T12:36:13.867Z,27.26
2023-05-09T12:37:13.848Z,27.27
2023-05-09T12:38:13.791Z,27.28
2023-05-09T12:39:13.760Z,27.29
2023-05-09T12:40:13.742Z,27.30
2023-05-09T12:41:33.257Z,27.33
2023-05-09T12:42:14.778Z,27.33
2023-05-09T12:43:13.736Z,27.35
2023-05-09T12:44:13.727Z,27.35
2023-05-09T12:45:14.092Z,27.36
2023-05-09T12:46:13.749Z,27.38
2023-05-09T12:47:13.780Z,27.39
2023-05-09T12:48:13.709Z,27.39
2023-05-09T12:49:13.702Z,27.40
2023-05-09T12:50:13.754Z,27.40
2023-05-09T12:51:13.673Z,27.41
2023-05-09T12:52:13.711Z,27.42
2023-05-09T12:53:13.755Z,27.43
2023-05-09T12:54:13.635Z,27.43